首页
METAR-TAF:

METAR-TAF

机场 :

Beckley, 西維吉尼亞州, 美国

纬度: 37-47-42N, 经度: 081-07-29W, 海拔: 763米

当前天气观测

该预报发布于1小时和11分钟前的13:51 UTC
风速6节,风向西南
温度 4°C
湿度 38%
气压 1024 hPa
能見度: 16.1公里
天空无云

METAR: KBKW 231351Z AUTO 22006KT 10SM CLR 04/M09 A3023 RMK AO2 SLP262 T00391094

时间: 10:02 (15:02 UTC)

预报

该预报发布于34分钟前的14:28 UTC
预报有效从23日的 14点(UTC)到 24日的 12点(UTC)
风速5节,风向西南
能見度: 10公里
天空无云
从 23日的 1900点(UTC)
风速8节,风向西转西南,有时为13节阵风
能見度: 10公里
散云层高于18000英尺
从 23日的 2100点(UTC)
风速6节,风向西转西南
能見度: 10公里
散云层高于7000英尺
多云层高于18000英尺
从 24日的 0900点(UTC)
风速节,风向
能見度: 10公里
阴天层高于10000英尺

TAF: KBKW 231428Z 2314/2412 22005KT P6SM SKC FM231900 25008G13KT P6SM SCT180 FM232100 24006KT P6SM SCT070 BKN180 FM240900 00000KT P6SM OVC100

超过4000个机场的气象观测和天气预报(METAR&TAF报告)。

可查询的气象台以黄色和红色小点在地图上表示。

将鼠标移到小点上方,可查看气象台名称。

然后点击查看天气观测和预报。

如需切换地图:点击带黑十字的绿色按钮放大地图;点击带横线的绿色按钮缩小地图;或者点击绿色箭头查看邻近地区的地图。


METAR-TAF: